createdAt,value
2023-01-04T00:02:26.508Z,101255.27
2023-01-04T00:04:53.613Z,101253.52
2023-01-04T00:07:20.693Z,101250.72
2023-01-04T00:09:47.675Z,101252.76
2023-01-04T00:12:14.731Z,101251.36
2023-01-04T00:14:42.373Z,101256.32
2023-01-04T00:17:09.380Z,101249.75
2023-01-04T00:19:36.530Z,101246.81
2023-01-04T00:22:03.697Z,101242.64
2023-01-04T00:24:30.653Z,101240.33
2023-01-04T00:26:58.037Z,101238.58
2023-01-04T00:29:25.445Z,101239.73
2023-01-04T00:31:52.448Z,101242.59
2023-01-04T00:34:20.589Z,101250.91
2023-01-04T00:36:47.994Z,101255.50
2023-01-04T00:39:17.252Z,101255.95
2023-01-04T00:41:58.897Z,101260.19
2023-01-04T00:44:28.312Z,101261.62
2023-01-04T00:46:55.412Z,101264.30
2023-01-04T00:49:22.339Z,101264.08
2023-01-04T00:51:49.736Z,101261.41
2023-01-04T00:54:17.769Z,101268.59
2023-01-04T00:56:44.805Z,101273.73
2023-01-04T00:59:14.180Z,101279.05
2023-01-04T01:01:42.787Z,101278.86
2023-01-04T01:04:11.852Z,101284.18
2023-01-04T01:06:39.018Z,101286.73
2023-01-04T01:09:06.724Z,101287.20
2023-01-04T01:11:36.689Z,101285.67
2023-01-04T01:14:03.674Z,101282.02
2023-01-04T01:19:18.102Z,101287.52
2023-01-04T01:21:45.420Z,101284.88
2023-01-04T01:24:19.356Z,101289.31
2023-01-04T01:26:46.785Z,101289.91
2023-01-04T01:29:13.910Z,101294.29
2023-01-04T01:31:41.803Z,101297.14
2023-01-04T01:34:09.095Z,101294.67
2023-01-04T01:36:36.043Z,101295.83
2023-01-04T01:39:03.235Z,101293.41
2023-01-04T01:41:32.466Z,101288.90
2023-01-04T01:44:01.606Z,101287.14
2023-01-04T01:46:35.658Z,101273.74
2023-01-04T01:49:08.588Z,101267.79
2023-01-04T01:51:36.657Z,101266.17
2023-01-04T01:54:09.269Z,101266.14
2023-01-04T01:56:40.948Z,101262.64
2023-01-04T01:59:10.133Z,101258.25
2023-01-04T02:01:37.640Z,101258.45
2023-01-04T02:04:05.772Z,101266.27
2023-01-04T02:06:40.859Z,101277.33
2023-01-04T02:09:08.144Z,101274.25
2023-01-04T02:11:36.264Z,101273.29
2023-01-04T02:14:23.927Z,101267.23
2023-01-04T02:17:02.470Z,101265.75
2023-01-04T02:19:45.555Z,101268.90
2023-01-04T02:22:40.531Z,101267.63
2023-01-04T02:25:36.612Z,101264.10
2023-01-04T02:28:09.795Z,101254.73
2023-01-04T02:31:09.446Z,101255.48
2023-01-04T02:33:50.297Z,101251.45
2023-01-04T02:36:27.006Z,101244.46
2023-01-04T02:39:00.468Z,101244.70
2023-01-04T02:41:34.281Z,101244.74
2023-01-04T02:44:25.887Z,101245.50
2023-01-04T02:46:59.725Z,101243.64
2023-01-04T02:49:44.395Z,101241.11
2023-01-04T02:52:11.687Z,101232.62
2023-01-04T02:54:39.961Z,101236.65
2023-01-04T02:57:32.013Z,101241.02
2023-01-04T03:00:19.574Z,101244.20
2023-01-04T03:03:27.329Z,101241.03
2023-01-04T03:06:18.560Z,101240.65
2023-01-04T03:08:55.897Z,101237.50
2023-01-04T03:11:43.317Z,101235.73
2023-01-04T03:14:31.360Z,101230.02
2023-01-04T03:17:03.068Z,101226.54
2023-01-04T03:19:58.427Z,101220.71
2023-01-04T03:22:50.754Z,101215.44
2023-01-04T03:25:41.001Z,101206.67
2023-01-04T03:28:27.383Z,101201.38
2023-01-04T03:31:19.306Z,101194.19
2023-01-04T03:34:04.269Z,101188.67
2023-01-04T03:36:46.522Z,101192.05
2023-01-04T03:39:35.307Z,101190.66
2023-01-04T03:42:24.737Z,101192.36
2023-01-04T03:45:17.835Z,101194.21
2023-01-04T03:48:09.677Z,101196.91
2023-01-04T03:50:40.680Z,101198.11
2023-01-04T03:53:08.772Z,101190.77
2023-01-04T03:55:38.461Z,101179.80
2023-01-04T03:58:05.411Z,101175.63
2023-01-04T04:00:32.828Z,101177.82
2023-01-04T04:03:07.778Z,101183.43
2023-01-04T04:05:53.349Z,101186.46
2023-01-04T04:08:29.805Z,101180.95
2023-01-04T04:10:58.537Z,101185.17
2023-01-04T04:13:25.716Z,101181.89
2023-01-04T04:15:55.528Z,101174.17
2023-01-04T04:18:22.742Z,101174.01
2023-01-04T04:20:57.932Z,101173.86
2023-01-04T04:23:25.023Z,101174.71
2023-01-04T04:25:52.026Z,101182.39
2023-01-04T04:28:19.074Z,101181.55
2023-01-04T04:30:46.177Z,101176.21
2023-01-04T04:33:13.150Z,101175.70
2023-01-04T04:35:41.641Z,101169.52
2023-01-04T04:38:08.755Z,101168.15
2023-01-04T04:40:53.661Z,101161.80
2023-01-04T04:43:20.753Z,101169.98
2023-01-04T04:45:48.423Z,101166.87
2023-01-04T04:48:15.454Z,101165.32
2023-01-04T04:50:42.458Z,101166.16
2023-01-04T04:53:09.516Z,101165.15
2023-01-04T04:55:36.411Z,101166.31
2023-01-04T04:58:03.517Z,101164.25
2023-01-04T05:00:30.699Z,101164.09
2023-01-04T05:03:01.130Z,101158.95
2023-01-04T05:05:28.739Z,101159.81
2023-01-04T05:07:56.069Z,101160.13
2023-01-04T05:10:23.230Z,101162.33
2023-01-04T05:13:02.756Z,101166.80
2023-01-04T05:15:31.493Z,101168.00
2023-01-04T05:17:58.539Z,101170.76
2023-01-04T05:20:25.533Z,101165.45
2023-01-04T05:22:52.705Z,101160.32
2023-01-04T05:25:20.537Z,101151.04
2023-01-04T05:27:47.848Z,101146.14
2023-01-04T05:30:34.123Z,101137.25
2023-01-04T05:33:01.471Z,101135.98
2023-01-04T05:35:28.950Z,101140.17
2023-01-04T05:37:56.511Z,101140.05
2023-01-04T05:40:24.152Z,101133.83
2023-01-04T05:42:51.681Z,101131.52
2023-01-04T05:45:19.719Z,101127.20
2023-01-04T05:47:47.019Z,101124.13
2023-01-04T05:50:14.153Z,101123.07
2023-01-04T05:52:41.148Z,101117.95
2023-01-04T05:55:09.243Z,101115.55
2023-01-04T05:57:36.166Z,101113.14
2023-01-04T06:00:03.336Z,101112.11
2023-01-04T06:02:39.826Z,101109.66
2023-01-04T06:05:08.533Z,101112.98
2023-01-04T06:07:35.743Z,101116.86
2023-01-04T06:10:03.120Z,101114.08
2023-01-04T06:12:30.173Z,101110.98
2023-01-04T06:14:57.136Z,101105.66
2023-01-04T06:17:24.278Z,101101.73
2023-01-04T06:19:51.405Z,101096.25
2023-01-04T06:22:18.716Z,101090.07
2023-01-04T06:24:45.723Z,101081.15
2023-01-04T06:27:12.998Z,101075.13
2023-01-04T06:29:40.044Z,101073.39
2023-01-04T06:32:07.340Z,101069.70
2023-01-04T06:34:34.635Z,101062.42
2023-01-04T06:37:01.597Z,101063.19
2023-01-04T06:39:28.615Z,101068.36
2023-01-04T06:42:01.942Z,101069.53
2023-01-04T06:44:32.736Z,101063.47
2023-01-04T06:46:59.908Z,101063.40
2023-01-04T06:49:26.860Z,101064.23
2023-01-04T06:51:53.810Z,101065.61
2023-01-04T06:54:20.972Z,101064.16
2023-01-04T06:56:47.913Z,101064.95
2023-01-04T06:59:14.951Z,101059.27
2023-01-04T07:01:42.483Z,101070.08
2023-01-04T07:04:09.502Z,101072.19
2023-01-04T07:06:37.754Z,101073.79
2023-01-04T07:09:04.980Z,101078.17
2023-01-04T07:11:31.925Z,101088.52
2023-01-04T07:13:58.937Z,101089.88
2023-01-04T07:16:26.714Z,101093.34
2023-01-04T07:18:53.712Z,101089.63
2023-01-04T07:21:20.945Z,101089.30
2023-01-04T07:23:48.069Z,101086.40
2023-01-04T07:26:15.042Z,101083.34
2023-01-04T07:28:59.594Z,101081.49
2023-01-04T07:31:26.818Z,101077.09
2023-01-04T07:33:54.091Z,101078.98
2023-01-04T07:36:21.077Z,101077.09
2023-01-04T07:38:48.243Z,101071.42
2023-01-04T07:41:15.270Z,101063.52
2023-01-04T07:43:42.359Z,101060.44
2023-01-04T07:46:09.801Z,101056.98
2023-01-04T07:48:36.800Z,101053.85
2023-01-04T07:51:03.737Z,101051.52
2023-01-04T07:53:31.020Z,101053.41
2023-01-04T07:56:01.466Z,101047.29
2023-01-04T07:58:32.715Z,101042.57
2023-01-04T08:01:06.637Z,101034.27
2023-01-04T08:03:34.141Z,101028.88
2023-01-04T08:06:03.420Z,101022.55
2023-01-04T08:08:30.456Z,101014.66
2023-01-04T08:10:57.421Z,101015.46
2023-01-04T08:13:24.595Z,101015.92
2023-01-04T08:15:56.949Z,101007.63
2023-01-04T08:18:24.692Z,101002.80
2023-01-04T08:20:56.612Z,100998.28
2023-01-04T08:23:26.138Z,100989.27
2023-01-04T08:25:53.070Z,100991.92
2023-01-04T08:28:20.076Z,100993.73
2023-01-04T08:30:47.398Z,100986.22
2023-01-04T08:33:18.177Z,100976.65
2023-01-04T08:35:45.114Z,100973.77
2023-01-04T08:38:47.255Z,100975.66
2023-01-04T08:41:07.302Z,100969.80
2023-01-04T08:43:46.718Z,100970.84
2023-01-04T08:46:14.912Z,100972.27
2023-01-04T08:48:42.366Z,100974.19
2023-01-04T08:51:13.691Z,100968.03
2023-01-04T08:53:40.799Z,100964.44
2023-01-04T08:56:08.940Z,100967.92
2023-01-04T08:58:37.733Z,100965.33
2023-01-04T09:01:05.881Z,100964.28
2023-01-04T09:03:33.368Z,100964.10
2023-01-04T09:06:06.978Z,100963.04
2023-01-04T09:08:35.448Z,100953.68
2023-01-04T09:11:06.922Z,100939.68
2023-01-04T09:13:34.292Z,100936.58
2023-01-04T09:16:05.046Z,100931.32
2023-01-04T09:18:33.163Z,100922.98
2023-01-04T09:21:01.589Z,100913.69
2023-01-04T09:23:30.482Z,100909.48
2023-01-04T09:25:57.492Z,100899.46
2023-01-04T09:28:24.960Z,100891.22
2023-01-04T09:30:52.293Z,100892.27
2023-01-04T09:33:19.322Z,100883.52
2023-01-04T09:35:46.767Z,100885.77
2023-01-04T09:38:13.921Z,100879.56
2023-01-04T09:40:51.425Z,100879.55
2023-01-04T09:43:22.406Z,100877.77
2023-01-04T09:45:53.595Z,100873.34
2023-01-04T09:48:25.992Z,100863.71
2023-01-04T09:50:55.588Z,100856.52
2023-01-04T09:53:30.073Z,100852.58
2023-01-04T09:56:03.544Z,100854.69
2023-01-04T09:58:34.457Z,100851.60
2023-01-04T10:01:07.530Z,100837.80
2023-01-04T10:03:38.821Z,100833.84
2023-01-04T10:06:09.521Z,100833.83
2023-01-04T10:08:37.085Z,100825.89
2023-01-04T10:11:20.533Z,100820.00
2023-01-04T10:14:05.574Z,100815.83
2023-01-04T10:22:46.476Z,100794.20
2023-01-04T10:25:30.835Z,100787.82
2023-01-04T10:28:12.065Z,100780.22
2023-01-04T10:30:46.429Z,100763.31
2023-01-04T10:33:16.915Z,100756.61
2023-01-04T10:35:46.837Z,100751.64
2023-01-04T10:38:18.277Z,100731.52
2023-01-04T10:40:48.415Z,100720.54
2023-01-04T10:43:23.074Z,100702.48
2023-01-04T10:45:58.883Z,100692.35
2023-01-04T10:48:34.994Z,100682.58
2023-01-04T10:51:09.876Z,100681.73
2023-01-04T10:53:45.604Z,100671.27
2023-01-04T10:56:25.623Z,100663.53
2023-01-04T10:59:00.114Z,100654.77
2023-01-04T11:01:31.163Z,100644.27
2023-01-04T11:04:04.086Z,100640.98
2023-01-04T11:06:35.309Z,100638.26
2023-01-04T11:09:05.764Z,100637.74
2023-01-04T11:11:38.047Z,100630.52
2023-01-04T11:14:06.028Z,100628.14
2023-01-04T11:16:34.105Z,100629.85
2023-01-04T11:19:01.175Z,100626.59
2023-01-04T11:21:32.599Z,100624.88
2023-01-04T11:24:30.565Z,100614.02
2023-01-04T11:26:53.377Z,100607.66
2023-01-04T11:29:32.111Z,100592.68
2023-01-04T11:32:02.536Z,100590.80
2023-01-04T11:34:46.731Z,100582.20
2023-01-04T11:37:27.035Z,100570.16
2023-01-04T11:40:11.813Z,100556.90
2023-01-04T11:42:38.741Z,100548.98
2023-01-04T11:45:06.867Z,100541.92
2023-01-04T11:47:33.956Z,100528.34
2023-01-04T11:50:00.962Z,100525.24
2023-01-04T11:52:37.191Z,100515.96
2023-01-04T11:55:24.945Z,100506.49
2023-01-04T11:58:09.070Z,100491.36
2023-01-04T12:00:36.599Z,100482.94
2023-01-04T12:03:16.376Z,100466.24
2023-01-04T12:05:43.531Z,100465.05
2023-01-04T12:08:23.182Z,100461.27
2023-01-04T12:10:50.464Z,100462.98
2023-01-04T12:13:17.581Z,100446.14
2023-01-04T12:15:57.007Z,100438.75
2023-01-04T12:18:29.434Z,100445.98
2023-01-04T12:20:56.922Z,100449.42
2023-01-04T12:23:24.547Z,100439.80
2023-01-04T12:25:54.457Z,100432.73
2023-01-04T12:28:40.023Z,100423.10
2023-01-04T12:31:36.656Z,100420.85
2023-01-04T12:34:40.946Z,100400.88
2023-01-04T12:37:09.027Z,100387.46
2023-01-04T12:39:47.703Z,100380.24
2023-01-04T12:42:26.779Z,100382.48
2023-01-04T12:45:25.306Z,100384.89
2023-01-04T12:48:12.193Z,100383.01
2023-01-04T12:51:42.735Z,100375.27
2023-01-04T12:54:32.199Z,100361.53
2023-01-04T12:57:37.542Z,100358.78
2023-01-04T13:00:10.042Z,100346.06
2023-01-04T13:02:44.354Z,100339.36
2023-01-04T13:05:55.438Z,100330.08
2023-01-04T13:08:22.632Z,100310.80
2023-01-04T13:10:52.765Z,100306.14
2023-01-04T13:13:31.692Z,100297.02
2023-01-04T13:16:11.020Z,100293.59
2023-01-04T13:18:41.715Z,100291.00
2023-01-04T13:21:18.136Z,100283.25
2023-01-04T13:23:51.291Z,100279.27
2023-01-04T13:26:39.799Z,100274.45
2023-01-04T13:29:13.440Z,100266.52
2023-01-04T13:31:49.793Z,100263.44
2023-01-04T13:34:31.558Z,100250.02
2023-01-04T13:37:21.671Z,100254.46
2023-01-04T13:39:51.258Z,100247.23
2023-01-04T13:42:30.996Z,100231.73
2023-01-04T13:45:24.388Z,100224.65
2023-01-04T13:47:57.053Z,100213.77
2023-01-04T13:50:40.317Z,100197.42
2023-01-04T13:53:09.165Z,100189.69
2023-01-04T13:55:38.332Z,100192.60
2023-01-04T13:58:07.530Z,100187.92
2023-01-04T14:00:42.537Z,100190.66
2023-01-04T14:03:22.679Z,100185.65
2023-01-04T14:05:52.795Z,100171.67
2023-01-04T14:08:28.731Z,100165.45
2023-01-04T14:10:57.001Z,100160.81
2023-01-04T14:13:24.661Z,100161.14
2023-01-04T14:16:11.731Z,100159.91
2023-01-04T14:18:39.076Z,100154.20
2023-01-04T14:21:06.347Z,100147.29
2023-01-04T14:23:38.741Z,100137.11
2023-01-04T14:26:06.046Z,100128.13
2023-01-04T14:28:41.546Z,100122.61
2023-01-04T14:31:31.756Z,100112.60
2023-01-04T14:33:59.338Z,100101.04
2023-01-04T14:36:30.112Z,100098.25
2023-01-04T14:39:11.562Z,100093.21
2023-01-04T14:41:40.959Z,100092.48
2023-01-04T14:44:13.029Z,100081.27
2023-01-04T14:46:41.884Z,100076.75
2023-01-04T14:49:08.891Z,100079.64
2023-01-04T14:51:42.390Z,100072.72
2023-01-04T14:54:11.337Z,100034.63
2023-01-04T14:56:38.801Z,100009.31
2023-01-04T14:59:06.203Z,100021.77
2023-01-04T15:01:33.651Z,100009.62
2023-01-04T15:04:00.761Z,100005.35
2023-01-04T15:06:28.210Z,99989.60
2023-01-04T15:08:55.153Z,99984.64
2023-01-04T15:11:22.178Z,99973.52
2023-01-04T15:13:49.345Z,99980.75
2023-01-04T15:16:18.636Z,99970.63
2023-01-04T15:18:46.323Z,99952.73
2023-01-04T15:21:14.893Z,99948.96
2023-01-04T15:23:42.153Z,99941.73
2023-01-04T15:26:10.264Z,99931.41
2023-01-04T15:28:39.284Z,99922.80
2023-01-04T15:31:12.191Z,99930.87
2023-01-04T15:33:39.952Z,99908.79
2023-01-04T15:36:10.671Z,99915.15
2023-01-04T15:38:38.013Z,99905.13
2023-01-04T15:41:07.375Z,99899.40
2023-01-04T15:43:36.681Z,99895.76
2023-01-04T15:46:08.376Z,99891.24
2023-01-04T15:48:35.890Z,99891.92
2023-01-04T15:51:08.000Z,99876.92
2023-01-04T15:53:35.584Z,99871.91
2023-01-04T15:56:11.880Z,99871.54
2023-01-04T15:58:39.368Z,99875.14
2023-01-04T16:01:12.241Z,99859.13
2023-01-04T16:03:40.021Z,99862.90
2023-01-04T16:06:13.686Z,99859.78
2023-01-04T16:08:41.884Z,99849.25
2023-01-04T16:11:15.049Z,99841.50
2023-01-04T16:13:42.921Z,99831.88
2023-01-04T16:16:11.318Z,99828.44
2023-01-04T16:18:38.820Z,99821.90
2023-01-04T16:21:09.184Z,99813.64
2023-01-04T16:23:36.194Z,99805.18
2023-01-04T16:26:16.079Z,99805.87
2023-01-04T16:28:43.712Z,99803.27
2023-01-04T16:31:11.400Z,99792.25
2023-01-04T16:33:39.251Z,99784.13
2023-01-04T16:36:09.798Z,99787.89
2023-01-04T16:38:41.414Z,99776.89
2023-01-04T16:41:09.901Z,99771.04
2023-01-04T16:43:45.781Z,99768.66
2023-01-04T16:46:25.579Z,99763.67
2023-01-04T16:48:55.157Z,99761.27
2023-01-04T16:51:22.928Z,99751.33
2023-01-04T16:53:50.041Z,99737.55
2023-01-04T16:56:19.241Z,99735.83
2023-01-04T16:58:47.085Z,99729.29
2023-01-04T17:01:16.167Z,99726.56
2023-01-04T17:03:44.498Z,99731.73
2023-01-04T17:06:14.779Z,99720.23
2023-01-04T17:08:42.365Z,99721.77
2023-01-04T17:14:01.010Z,99723.65
2023-01-04T17:16:34.225Z,99704.05
2023-01-04T17:19:05.052Z,99688.23
2023-01-04T17:21:34.246Z,99680.83
2023-01-04T17:24:02.384Z,99674.45
2023-01-04T17:26:32.040Z,99666.89
2023-01-04T17:29:00.991Z,99663.11
2023-01-04T17:31:30.989Z,99652.05
2023-01-04T17:33:58.322Z,99637.88
2023-01-04T17:36:26.400Z,99640.78
2023-01-04T17:39:05.298Z,99630.42
2023-01-04T17:41:35.983Z,99630.05
2023-01-04T17:44:07.568Z,99626.08
2023-01-04T17:46:37.521Z,99617.81
2023-01-04T17:49:24.104Z,99610.59
2023-01-04T17:51:55.433Z,99601.80
2023-01-04T17:54:23.161Z,99600.93
2023-01-04T17:56:50.100Z,99592.64
2023-01-04T17:59:17.230Z,99578.70
2023-01-04T18:01:44.258Z,99574.89
2023-01-04T18:04:11.470Z,99566.92
2023-01-04T18:06:40.266Z,99557.91
2023-01-04T18:09:09.254Z,99556.34
2023-01-04T18:11:37.416Z,99552.72
2023-01-04T18:14:09.593Z,99546.69
2023-01-04T18:16:57.168Z,99545.83
2023-01-04T18:19:25.521Z,99534.13
2023-01-04T18:21:52.562Z,99532.05
2023-01-04T18:24:36.798Z,99523.27
2023-01-04T18:29:52.469Z,99516.25
2023-01-04T18:32:19.958Z,99518.45
2023-01-04T18:34:46.869Z,99507.42
2023-01-04T18:37:16.051Z,99495.00
2023-01-04T18:39:43.394Z,99486.02
2023-01-04T18:42:10.464Z,99474.27
2023-01-04T18:44:41.194Z,99469.43
2023-01-04T18:47:13.083Z,99461.85
2023-01-04T18:49:40.185Z,99465.97
2023-01-04T18:52:07.769Z,99463.20
2023-01-04T18:54:35.064Z,99461.27
2023-01-04T18:57:02.025Z,99460.21
2023-01-04T18:59:28.991Z,99446.06
2023-01-04T19:02:01.494Z,99445.35
2023-01-04T19:04:29.330Z,99439.13
2023-01-04T19:06:56.717Z,99444.23
2023-01-04T19:09:24.115Z,99430.42
2023-01-04T19:11:51.142Z,99425.92
2023-01-04T19:14:18.513Z,99418.11
2023-01-04T19:16:45.618Z,99417.89
2023-01-04T19:19:13.223Z,99413.02
2023-01-04T19:21:41.564Z,99411.30
2023-01-04T19:24:09.057Z,99395.27
2023-01-04T19:26:36.086Z,99391.77
2023-01-04T19:29:03.371Z,99391.55
2023-01-04T19:31:30.479Z,99390.48
2023-01-04T19:33:58.033Z,99378.06
2023-01-04T19:36:25.065Z,99372.50
2023-01-04T19:38:52.292Z,99379.52
2023-01-04T19:41:29.110Z,99369.99
2023-01-04T19:44:00.139Z,99367.32
2023-01-04T19:46:27.072Z,99368.64
2023-01-04T19:48:54.057Z,99361.34
2023-01-04T19:51:21.260Z,99359.24
2023-01-04T19:53:48.247Z,99358.69
2023-01-04T19:56:16.969Z,99351.59
2023-01-04T19:58:44.722Z,99347.92
2023-01-04T20:01:15.629Z,99345.14
2023-01-04T20:03:43.211Z,99350.41
2023-01-04T20:06:11.757Z,99333.33
2023-01-04T20:08:39.073Z,99331.72
2023-01-04T20:11:07.494Z,99329.46
2023-01-04T20:13:35.203Z,99322.70
2023-01-04T20:16:04.783Z,99315.96
2023-01-04T20:18:32.435Z,99323.51
2023-01-04T20:20:59.474Z,99330.55
2023-01-04T20:23:26.798Z,99325.52
2023-01-04T20:25:55.728Z,99326.00
2023-01-04T20:28:24.884Z,99323.55
2023-01-04T20:31:01.126Z,99316.80
2023-01-04T20:33:28.407Z,99319.89
2023-01-04T20:35:55.441Z,99315.19
2023-01-04T20:38:22.674Z,99301.52
2023-01-04T20:40:49.875Z,99301.13
2023-01-04T20:43:34.805Z,99293.69
2023-01-04T20:46:03.164Z,99291.91
2023-01-04T20:48:30.591Z,99297.24
2023-01-04T20:50:58.079Z,99293.60
2023-01-04T20:53:25.418Z,99294.27
2023-01-04T20:55:53.419Z,99283.23
2023-01-04T20:58:20.413Z,99283.20
2023-01-04T21:00:48.013Z,99280.20
2023-01-04T21:03:15.478Z,99279.63
2023-01-04T21:05:44.257Z,99269.75
2023-01-04T21:08:12.359Z,99268.33
2023-01-04T21:10:43.656Z,99270.34
2023-01-04T21:13:11.755Z,99267.00
2023-01-04T21:15:40.310Z,99258.33
2023-01-04T21:18:11.095Z,99250.36
2023-01-04T21:20:42.267Z,99248.09
2023-01-04T21:23:09.615Z,99248.55
2023-01-04T21:25:39.620Z,99249.02
2023-01-04T21:28:07.328Z,99238.12
2023-01-04T21:30:34.337Z,99239.61
2023-01-04T21:33:02.285Z,99239.39
2023-01-04T21:35:30.086Z,99220.48
2023-01-04T21:37:57.107Z,99212.30
2023-01-04T21:40:24.390Z,99205.20
2023-01-04T21:42:51.926Z,99192.41
2023-01-04T21:45:19.683Z,99185.79
2023-01-04T21:47:46.668Z,99182.27
2023-01-04T21:50:17.183Z,99176.16
2023-01-04T21:52:44.542Z,99183.66
2023-01-04T21:55:12.438Z,99184.25
2023-01-04T21:57:39.978Z,99186.09
2023-01-04T22:00:09.339Z,99184.11
2023-01-04T22:02:36.666Z,99181.46
2023-01-04T22:05:08.913Z,99175.75
2023-01-04T22:07:35.919Z,99182.89
2023-01-04T22:10:03.317Z,99186.63
2023-01-04T22:12:30.333Z,99175.50
2023-01-04T22:14:57.260Z,99172.48
2023-01-04T22:17:24.595Z,99163.11
2023-01-04T22:19:51.605Z,99148.05
2023-01-04T22:22:18.544Z,99144.38
2023-01-04T22:24:45.689Z,99146.95
2023-01-04T22:27:13.380Z,99142.10
2023-01-04T22:29:40.458Z,99140.02
2023-01-04T22:32:08.116Z,99134.14
2023-01-04T22:34:35.278Z,99134.62
2023-01-04T22:37:02.170Z,99132.89
2023-01-04T22:39:29.508Z,99130.26
2023-01-04T22:41:56.492Z,99123.48
2023-01-04T22:44:23.589Z,99114.13
2023-01-04T22:46:50.915Z,99103.42
2023-01-04T22:49:18.298Z,99097.16
2023-01-04T22:51:45.318Z,99095.41
2023-01-04T22:54:12.915Z,99085.86
2023-01-04T22:56:40.026Z,99072.87
2023-01-04T22:59:06.927Z,99069.70
2023-01-04T23:01:35.677Z,99068.44
2023-01-04T23:04:03.581Z,99068.52
2023-01-04T23:06:32.656Z,99067.94
2023-01-04T23:09:02.909Z,99048.14
2023-01-04T23:11:31.876Z,99054.06
2023-01-04T23:14:00.289Z,99049.13
2023-01-04T23:16:32.281Z,99038.14
2023-01-04T23:19:00.049Z,99041.65
2023-01-04T23:21:27.548Z,99029.11
2023-01-04T23:23:54.513Z,99040.03
2023-01-04T23:26:24.737Z,99019.03
2023-01-04T23:28:52.888Z,99016.38
2023-01-04T23:31:21.939Z,99016.13
2023-01-04T23:33:49.691Z,99013.98
2023-01-04T23:36:19.303Z,99012.38
2023-01-04T23:38:53.354Z,99006.25
2023-01-04T23:41:20.775Z,99003.10
2023-01-04T23:43:48.165Z,98998.21
2023-01-04T23:46:17.541Z,98995.58
2023-01-04T23:48:44.991Z,98990.70
2023-01-04T23:51:13.238Z,98989.27
2023-01-04T23:53:40.555Z,98979.71
2023-01-04T23:56:14.577Z,98981.74
2023-01-04T23:58:41.548Z,98971.67
